sensor_id;sensor_type;location;lat;lon;timestamp;P1;durP1;ratioP1;P2;durP2;ratioP2
10947;SDS011;5526;42.070;24.752;2023-02-11T00:00:37;21.17;;;14.02;;
10947;SDS011;5526;42.070;24.752;2023-02-11T00:03:04;19.90;;;14.07;;
10947;SDS011;5526;42.070;24.752;2023-02-11T00:05:32;21.50;;;15.60;;
10947;SDS011;5526;42.070;24.752;2023-02-11T00:08:00;20.05;;;14.40;;
10947;SDS011;5526;42.070;24.752;2023-02-11T00:10:27;21.13;;;13.57;;
10947;SDS011;5526;42.070;24.752;2023-02-11T00:12:54;17.67;;;12.68;;
10947;SDS011;5526;42.070;24.752;2023-02-11T00:15:21;18.80;;;12.95;;
10947;SDS011;5526;42.070;24.752;2023-02-11T00:17:48;21.23;;;13.20;;
10947;SDS011;5526;42.070;24.752;2023-02-11T00:20:15;20.42;;;13.35;;
10947;SDS011;5526;42.070;24.752;2023-02-11T00:22:42;18.35;;;12.02;;
10947;SDS011;5526;42.070;24.752;2023-02-11T00:25:11;15.88;;;10.75;;
10947;SDS011;5526;42.070;24.752;2023-02-11T00:27:38;15.38;;;10.98;;
10947;SDS011;5526;42.070;24.752;2023-02-11T00:30:05;17.58;;;12.02;;
10947;SDS011;5526;42.070;24.752;2023-02-11T00:32:33;19.75;;;13.00;;
10947;SDS011;5526;42.070;24.752;2023-02-11T00:35:00;24.60;;;16.45;;
10947;SDS011;5526;42.070;24.752;2023-02-11T00:37:26;25.58;;;16.02;;
10947;SDS011;5526;42.070;24.752;2023-02-11T00:39:53;17.50;;;10.48;;
10947;SDS011;5526;42.070;24.752;2023-02-11T00:42:22;11.85;;;8.48;;
10947;SDS011;5526;42.070;24.752;2023-02-11T00:44:49;6.78;;;5.50;;
10947;SDS011;5526;42.070;24.752;2023-02-11T00:47:16;8.43;;;5.90;;
10947;SDS011;5526;42.070;24.752;2023-02-11T00:49:42;7.88;;;6.07;;
10947;SDS011;5526;42.070;24.752;2023-02-11T00:52:09;6.68;;;5.15;;
10947;SDS011;5526;42.070;24.752;2023-02-11T00:54:36;5.72;;;4.55;;
10947;SDS011;5526;42.070;24.752;2023-02-11T00:57:03;6.50;;;4.20;;
10947;SDS011;5526;42.070;24.752;2023-02-11T00:59:32;7.88;;;4.82;;
10947;SDS011;5526;42.070;24.752;2023-02-11T01:01:59;6.32;;;5.05;;
10947;SDS011;5526;42.070;24.752;2023-02-11T01:04:26;6.50;;;5.10;;
10947;SDS011;5526;42.070;24.752;2023-02-11T01:06:53;7.00;;;4.93;;
10947;SDS011;5526;42.070;24.752;2023-02-11T01:09:20;7.43;;;5.80;;
10947;SDS011;5526;42.070;24.752;2023-02-11T01:11:47;8.40;;;5.78;;
10947;SDS011;5526;42.070;24.752;2023-02-11T01:14:14;7.57;;;6.03;;
10947;SDS011;5526;42.070;24.752;2023-02-11T01:16:42;10.15;;;6.38;;
10947;SDS011;5526;42.070;24.752;2023-02-11T01:19:09;8.77;;;6.25;;
10947;SDS011;5526;42.070;24.752;2023-02-11T01:21:37;9.02;;;6.35;;
10947;SDS011;5526;42.070;24.752;2023-02-11T01:24:03;7.38;;;5.40;;
10947;SDS011;5526;42.070;24.752;2023-02-11T01:26:31;7.15;;;5.75;;
10947;SDS011;5526;42.070;24.752;2023-02-11T01:28:58;8.02;;;5.35;;
10947;SDS011;5526;42.070;24.752;2023-02-11T01:31:25;6.13;;;4.95;;
10947;SDS011;5526;42.070;24.752;2023-02-11T01:33:53;7.43;;;5.38;;
10947;SDS011;5526;42.070;24.752;2023-02-11T01:36:20;7.72;;;5.45;;
10947;SDS011;5526;42.070;24.752;2023-02-11T01:38:47;7.97;;;5.78;;
10947;SDS011;5526;42.070;24.752;2023-02-11T01:41:14;7.45;;;5.57;;
10947;SDS011;5526;42.070;24.752;2023-02-11T01:43:43;9.05;;;5.68;;
10947;SDS011;5526;42.070;24.752;2023-02-11T01:46:13;9.38;;;6.05;;
10947;SDS011;5526;42.070;24.752;2023-02-11T01:48:46;6.57;;;5.05;;
10947;SDS011;5526;42.070;24.752;2023-02-11T01:51:20;7.13;;;5.22;;
10947;SDS011;5526;42.070;24.752;2023-02-11T01:53:50;6.68;;;5.38;;
10947;SDS011;5526;42.070;24.752;2023-02-11T01:56:36;9.32;;;6.55;;
10947;SDS011;5526;42.070;24.752;2023-02-11T01:59:26;8.05;;;5.90;;
10947;SDS011;5526;42.070;24.752;2023-02-11T02:01:57;8.50;;;5.68;;
10947;SDS011;5526;42.070;24.752;2023-02-11T02:04:28;7.88;;;5.90;;
10947;SDS011;5526;42.070;24.752;2023-02-11T02:07:02;8.13;;;6.03;;
10947;SDS011;5526;42.070;24.752;2023-02-11T02:09:35;7.78;;;6.07;;
10947;SDS011;5526;42.070;24.752;2023-02-11T02:12:05;9.73;;;6.28;;
10947;SDS011;5526;42.070;24.752;2023-02-11T02:14:35;9.07;;;5.95;;
10947;SDS011;5526;42.070;24.752;2023-02-11T02:17:03;7.75;;;5.72;;
10947;SDS011;5526;42.070;24.752;2023-02-11T02:25:55;10.07;;;7.22;;
10947;SDS011;5526;42.070;24.752;2023-02-11T02:31:48;7.70;;;5.55;;
10947;SDS011;5526;42.070;24.752;2023-02-11T02:34:28;7.15;;;5.57;;
10947;SDS011;5526;42.070;24.752;2023-02-11T02:37:03;8.48;;;6.05;;
10947;SDS011;5526;42.070;24.752;2023-02-11T02:39:35;8.57;;;6.25;;
10947;SDS011;5526;42.070;24.752;2023-02-11T02:42:02;8.13;;;6.07;;
10947;SDS011;5526;42.070;24.752;2023-02-11T02:44:31;7.82;;;5.97;;
10947;SDS011;5526;42.070;24.752;2023-02-11T02:46:59;9.88;;;5.97;;
10947;SDS011;5526;42.070;24.752;2023-02-11T02:49:26;11.38;;;6.68;;
10947;SDS011;5526;42.070;24.752;2023-02-11T02:52:04;8.65;;;6.13;;
10947;SDS011;5526;42.070;24.752;2023-02-11T02:54:48;9.43;;;6.75;;
10947;SDS011;5526;42.070;24.752;2023-02-11T02:57:28;10.18;;;7.00;;
10947;SDS011;5526;42.070;24.752;2023-02-11T03:02:49;11.15;;;7.53;;
10947;SDS011;5526;42.070;24.752;2023-02-11T03:05:22;9.70;;;6.80;;
10947;SDS011;5526;42.070;24.752;2023-02-11T03:08:02;9.68;;;7.20;;
10947;SDS011;5526;42.070;24.752;2023-02-11T03:10:34;10.80;;;7.25;;
10947;SDS011;5526;42.070;24.752;2023-02-11T03:13:04;9.70;;;7.15;;
10947;SDS011;5526;42.070;24.752;2023-02-11T03:15:33;18.08;;;14.77;;
10947;SDS011;5526;42.070;24.752;2023-02-11T03:18:05;22.13;;;16.50;;
10947;SDS011;5526;42.070;24.752;2023-02-11T03:20:35;17.25;;;11.75;;
10947;SDS011;5526;42.070;24.752;2023-02-11T03:23:10;17.50;;;11.43;;
10947;SDS011;5526;42.070;24.752;2023-02-11T03:25:41;22.20;;;15.82;;
10947;SDS011;5526;42.070;24.752;2023-02-11T03:28:14;33.65;;;22.15;;
10947;SDS011;5526;42.070;24.752;2023-02-11T03:30:52;20.23;;;14.23;;
10947;SDS011;5526;42.070;24.752;2023-02-11T03:33:28;16.95;;;13.18;;
10947;SDS011;5526;42.070;24.752;2023-02-11T03:36:01;20.95;;;14.10;;
10947;SDS011;5526;42.070;24.752;2023-02-11T03:38:35;29.55;;;20.85;;
10947;SDS011;5526;42.070;24.752;2023-02-11T03:41:09;37.63;;;28.13;;
10947;SDS011;5526;42.070;24.752;2023-02-11T03:43:39;20.88;;;15.70;;
10947;SDS011;5526;42.070;24.752;2023-02-11T03:46:09;17.92;;;14.02;;
10947;SDS011;5526;42.070;24.752;2023-02-11T03:48:39;17.00;;;13.18;;
10947;SDS011;5526;42.070;24.752;2023-02-11T03:51:10;15.13;;;11.02;;
10947;SDS011;5526;42.070;24.752;2023-02-11T03:53:41;18.85;;;11.15;;
10947;SDS011;5526;42.070;24.752;2023-02-11T03:56:12;31.60;;;21.92;;
10947;SDS011;5526;42.070;24.752;2023-02-11T03:58:43;26.10;;;17.25;;
10947;SDS011;5526;42.070;24.752;2023-02-11T04:01:10;20.35;;;13.63;;
10947;SDS011;5526;42.070;24.752;2023-02-11T04:03:37;22.38;;;13.82;;
10947;SDS011;5526;42.070;24.752;2023-02-11T04:06:04;21.42;;;14.98;;
10947;SDS011;5526;42.070;24.752;2023-02-11T04:08:31;21.65;;;15.90;;
10947;SDS011;5526;42.070;24.752;2023-02-11T04:11:00;26.38;;;18.08;;
10947;SDS011;5526;42.070;24.752;2023-02-11T04:13:27;27.63;;;19.63;;
10947;SDS011;5526;42.070;24.752;2023-02-11T04:15:54;27.17;;;19.58;;
10947;SDS011;5526;42.070;24.752;2023-02-11T04:18:21;29.65;;;20.60;;
10947;SDS011;5526;42.070;24.752;2023-02-11T04:20:48;29.05;;;21.17;;
10947;SDS011;5526;42.070;24.752;2023-02-11T04:23:16;31.95;;;22.50;;
10947;SDS011;5526;42.070;24.752;2023-02-11T04:25:43;30.67;;;22.10;;
10947;SDS011;5526;42.070;24.752;2023-02-11T04:28:11;31.85;;;23.20;;
10947;SDS011;5526;42.070;24.752;2023-02-11T04:30:38;33.30;;;23.67;;
10947;SDS011;5526;42.070;24.752;2023-02-11T04:33:05;33.97;;;23.35;;
10947;SDS011;5526;42.070;24.752;2023-02-11T04:35:32;31.20;;;21.95;;
10947;SDS011;5526;42.070;24.752;2023-02-11T04:37:59;32.42;;;22.17;;
10947;SDS011;5526;42.070;24.752;2023-02-11T04:40:26;33.78;;;22.20;;
10947;SDS011;5526;42.070;24.752;2023-02-11T04:42:53;29.30;;;19.98;;
10947;SDS011;5526;42.070;24.752;2023-02-11T04:45:21;30.02;;;19.88;;
10947;SDS011;5526;42.070;24.752;2023-02-11T04:47:48;24.25;;;17.90;;
10947;SDS011;5526;42.070;24.752;2023-02-11T04:50:15;23.88;;;16.75;;
10947;SDS011;5526;42.070;24.752;2023-02-11T04:52:42;22.40;;;15.32;;
10947;SDS011;5526;42.070;24.752;2023-02-11T04:55:09;22.42;;;15.07;;
10947;SDS011;5526;42.070;24.752;2023-02-11T04:57:36;23.70;;;15.07;;
10947;SDS011;5526;42.070;24.752;2023-02-11T05:00:03;23.92;;;15.15;;
10947;SDS011;5526;42.070;24.752;2023-02-11T05:02:33;24.88;;;15.40;;
10947;SDS011;5526;42.070;24.752;2023-02-11T05:04:59;29.17;;;16.48;;
10947;SDS011;5526;42.070;24.752;2023-02-11T05:07:26;24.83;;;16.20;;
10947;SDS011;5526;42.070;24.752;2023-02-11T05:09:53;24.35;;;16.00;;
10947;SDS011;5526;42.070;24.752;2023-02-11T05:12:20;17.75;;;11.95;;
10947;SDS011;5526;42.070;24.752;2023-02-11T05:14:47;14.73;;;11.60;;
10947;SDS011;5526;42.070;24.752;2023-02-11T05:17:14;15.68;;;11.05;;
10947;SDS011;5526;42.070;24.752;2023-02-11T05:19:43;13.57;;;11.05;;
10947;SDS011;5526;42.070;24.752;2023-02-11T05:22:10;14.48;;;10.07;;
10947;SDS011;5526;42.070;24.752;2023-02-11T05:24:37;14.77;;;9.45;;
10947;SDS011;5526;42.070;24.752;2023-02-11T05:27:04;14.25;;;10.20;;
10947;SDS011;5526;42.070;24.752;2023-02-11T05:29:31;13.93;;;10.30;;
10947;SDS011;5526;42.070;24.752;2023-02-11T05:31:58;16.45;;;10.85;;
10947;SDS011;5526;42.070;24.752;2023-02-11T05:34:25;16.38;;;12.07;;
10947;SDS011;5526;42.070;24.752;2023-02-11T05:36:53;17.38;;;12.13;;
10947;SDS011;5526;42.070;24.752;2023-02-11T05:39:20;14.88;;;11.20;;
10947;SDS011;5526;42.070;24.752;2023-02-11T05:41:47;20.02;;;12.60;;
10947;SDS011;5526;42.070;24.752;2023-02-11T05:44:14;20.05;;;14.32;;
10947;SDS011;5526;42.070;24.752;2023-02-11T05:46:41;20.95;;;15.55;;
10947;SDS011;5526;42.070;24.752;2023-02-11T05:49:08;22.38;;;15.32;;
10947;SDS011;5526;42.070;24.752;2023-02-11T05:51:35;26.08;;;17.17;;
10947;SDS011;5526;42.070;24.752;2023-02-11T05:54:04;23.35;;;16.55;;
10947;SDS011;5526;42.070;24.752;2023-02-11T05:56:31;26.55;;;18.25;;
10947;SDS011;5526;42.070;24.752;2023-02-11T05:58:58;23.52;;;16.55;;
10947;SDS011;5526;42.070;24.752;2023-02-11T06:01:25;26.83;;;17.23;;
10947;SDS011;5526;42.070;24.752;2023-02-11T06:03:52;25.92;;;17.77;;
10947;SDS011;5526;42.070;24.752;2023-02-11T06:06:19;27.13;;;16.65;;
10947;SDS011;5526;42.070;24.752;2023-02-11T06:08:46;21.40;;;13.98;;
10947;SDS011;5526;42.070;24.752;2023-02-11T06:11:15;23.27;;;15.10;;
10947;SDS011;5526;42.070;24.752;2023-02-11T06:13:42;22.52;;;16.25;;
10947;SDS011;5526;42.070;24.752;2023-02-11T06:16:09;24.45;;;17.50;;
10947;SDS011;5526;42.070;24.752;2023-02-11T06:18:36;19.65;;;15.07;;
10947;SDS011;5526;42.070;24.752;2023-02-11T06:21:05;21.35;;;15.23;;
10947;SDS011;5526;42.070;24.752;2023-02-11T06:23:33;21.30;;;14.60;;
10947;SDS011;5526;42.070;24.752;2023-02-11T06:26:01;18.58;;;13.35;;
10947;SDS011;5526;42.070;24.752;2023-02-11T06:28:30;21.50;;;14.65;;
10947;SDS011;5526;42.070;24.752;2023-02-11T06:30:58;22.60;;;15.63;;
10947;SDS011;5526;42.070;24.752;2023-02-11T06:33:30;22.50;;;16.55;;
10947;SDS011;5526;42.070;24.752;2023-02-11T06:35:57;23.02;;;18.00;;
10947;SDS011;5526;42.070;24.752;2023-02-11T06:38:24;25.25;;;17.40;;
10947;SDS011;5526;42.070;24.752;2023-02-11T06:40:51;24.58;;;17.77;;
10947;SDS011;5526;42.070;24.752;2023-02-11T06:43:18;24.25;;;18.25;;
10947;SDS011;5526;42.070;24.752;2023-02-11T06:45:50;22.95;;;16.95;;
10947;SDS011;5526;42.070;24.752;2023-02-11T06:48:18;20.67;;;14.20;;
10947;SDS011;5526;42.070;24.752;2023-02-11T06:50:45;21.10;;;15.38;;
10947;SDS011;5526;42.070;24.752;2023-02-11T06:53:12;21.13;;;16.20;;
10947;SDS011;5526;42.070;24.752;2023-02-11T06:55:39;19.33;;;14.02;;
10947;SDS011;5526;42.070;24.752;2023-02-11T06:58:06;23.58;;;17.10;;
10947;SDS011;5526;42.070;24.752;2023-02-11T07:00:33;24.15;;;18.10;;
10947;SDS011;5526;42.070;24.752;2023-02-11T07:03:01;26.75;;;19.17;;
10947;SDS011;5526;42.070;24.752;2023-02-11T07:05:29;25.90;;;18.85;;
10947;SDS011;5526;42.070;24.752;2023-02-11T07:07:56;27.23;;;18.10;;
10947;SDS011;5526;42.070;24.752;2023-02-11T07:10:23;25.42;;;18.70;;
10947;SDS011;5526;42.070;24.752;2023-02-11T07:12:49;26.25;;;18.45;;
10947;SDS011;5526;42.070;24.752;2023-02-11T07:15:16;39.15;;;22.25;;
10947;SDS011;5526;42.070;24.752;2023-02-11T07:17:43;32.70;;;21.80;;
10947;SDS011;5526;42.070;24.752;2023-02-11T07:20:12;61.92;;;31.27;;
10947;SDS011;5526;42.070;24.752;2023-02-11T07:22:39;54.88;;;28.10;;
10947;SDS011;5526;42.070;24.752;2023-02-11T07:25:06;30.42;;;19.80;;
10947;SDS011;5526;42.070;24.752;2023-02-11T07:27:33;27.58;;;21.67;;
10947;SDS011;5526;42.070;24.752;2023-02-11T07:30:01;29.35;;;20.90;;
10947;SDS011;5526;42.070;24.752;2023-02-11T07:32:28;30.00;;;21.80;;
10947;SDS011;5526;42.070;24.752;2023-02-11T07:34:55;30.52;;;19.25;;
10947;SDS011;5526;42.070;24.752;2023-02-11T07:37:23;27.77;;;19.77;;
10947;SDS011;5526;42.070;24.752;2023-02-11T07:39:50;28.13;;;20.60;;
10947;SDS011;5526;42.070;24.752;2023-02-11T07:42:17;28.42;;;20.70;;
10947;SDS011;5526;42.070;24.752;2023-02-11T07:44:45;28.73;;;20.73;;
10947;SDS011;5526;42.070;24.752;2023-02-11T07:47:12;34.13;;;25.02;;
10947;SDS011;5526;42.070;24.752;2023-02-11T07:49:39;30.42;;;20.98;;
10947;SDS011;5526;42.070;24.752;2023-02-11T07:52:05;31.85;;;21.80;;
10947;SDS011;5526;42.070;24.752;2023-02-11T07:54:34;29.73;;;21.30;;
10947;SDS011;5526;42.070;24.752;2023-02-11T07:57:01;30.20;;;20.67;;
10947;SDS011;5526;42.070;24.752;2023-02-11T07:59:28;26.00;;;18.50;;
10947;SDS011;5526;42.070;24.752;2023-02-11T08:01:55;24.92;;;16.05;;
10947;SDS011;5526;42.070;24.752;2023-02-11T08:04:22;28.23;;;18.45;;
10947;SDS011;5526;42.070;24.752;2023-02-11T08:06:49;19.27;;;14.32;;
10947;SDS011;5526;42.070;24.752;2023-02-11T08:09:17;19.77;;;13.65;;
10947;SDS011;5526;42.070;24.752;2023-02-11T08:11:45;23.67;;;14.93;;
10947;SDS011;5526;42.070;24.752;2023-02-11T08:14:12;18.45;;;13.60;;
10947;SDS011;5526;42.070;24.752;2023-02-11T08:16:39;19.85;;;13.82;;
10947;SDS011;5526;42.070;24.752;2023-02-11T08:19:08;16.40;;;12.32;;
10947;SDS011;5526;42.070;24.752;2023-02-11T08:21:37;18.58;;;12.15;;
10947;SDS011;5526;42.070;24.752;2023-02-11T08:24:05;17.33;;;12.35;;
10947;SDS011;5526;42.070;24.752;2023-02-11T08:26:33;16.23;;;11.18;;
10947;SDS011;5526;42.070;24.752;2023-02-11T08:29:04;16.75;;;10.73;;
10947;SDS011;5526;42.070;24.752;2023-02-11T08:31:33;17.35;;;12.32;;
10947;SDS011;5526;42.070;24.752;2023-02-11T08:34:02;15.60;;;9.95;;
10947;SDS011;5526;42.070;24.752;2023-02-11T08:36:30;14.38;;;10.25;;
10947;SDS011;5526;42.070;24.752;2023-02-11T08:38:59;19.30;;;11.30;;
10947;SDS011;5526;42.070;24.752;2023-02-11T08:41:28;17.60;;;11.75;;
10947;SDS011;5526;42.070;24.752;2023-02-11T08:43:55;11.50;;;9.13;;
10947;SDS011;5526;42.070;24.752;2023-02-11T08:46:23;16.10;;;11.70;;
10947;SDS011;5526;42.070;24.752;2023-02-11T08:48:50;15.52;;;11.27;;
10947;SDS011;5526;42.070;24.752;2023-02-11T08:51:19;16.88;;;10.55;;
10947;SDS011;5526;42.070;24.752;2023-02-11T08:53:48;16.58;;;10.82;;
10947;SDS011;5526;42.070;24.752;2023-02-11T08:56:16;19.10;;;10.93;;
10947;SDS011;5526;42.070;24.752;2023-02-11T08:58:45;16.15;;;11.40;;
10947;SDS011;5526;42.070;24.752;2023-02-11T09:01:13;14.68;;;10.90;;
10947;SDS011;5526;42.070;24.752;2023-02-11T09:03:43;11.45;;;9.02;;
10947;SDS011;5526;42.070;24.752;2023-02-11T09:06:10;14.32;;;11.00;;
10947;SDS011;5526;42.070;24.752;2023-02-11T09:08:39;17.30;;;10.93;;
10947;SDS011;5526;42.070;24.752;2023-02-11T09:11:08;14.75;;;10.63;;
10947;SDS011;5526;42.070;24.752;2023-02-11T09:13:35;13.52;;;9.50;;
10947;SDS011;5526;42.070;24.752;2023-02-11T09:16:04;14.45;;;9.55;;
10947;SDS011;5526;42.070;24.752;2023-02-11T09:18:31;14.85;;;10.10;;
10947;SDS011;5526;42.070;24.752;2023-02-11T09:21:02;20.17;;;12.85;;
10947;SDS011;5526;42.070;24.752;2023-02-11T09:23:30;17.30;;;11.98;;
10947;SDS011;5526;42.070;24.752;2023-02-11T09:25:58;16.73;;;12.18;;
10947;SDS011;5526;42.070;24.752;2023-02-11T09:28:26;14.00;;;10.93;;
10947;SDS011;5526;42.070;24.752;2023-02-11T09:30:53;13.10;;;10.43;;
10947;SDS011;5526;42.070;24.752;2023-02-11T09:33:20;15.00;;;9.70;;
10947;SDS011;5526;42.070;24.752;2023-02-11T09:35:47;9.15;;;7.60;;
10947;SDS011;5526;42.070;24.752;2023-02-11T09:38:15;11.25;;;8.50;;
10947;SDS011;5526;42.070;24.752;2023-02-11T09:40:42;11.45;;;7.78;;
10947;SDS011;5526;42.070;24.752;2023-02-11T09:43:10;12.18;;;8.30;;
10947;SDS011;5526;42.070;24.752;2023-02-11T09:45:42;15.68;;;10.38;;
10947;SDS011;5526;42.070;24.752;2023-02-11T09:48:11;10.52;;;7.45;;
10947;SDS011;5526;42.070;24.752;2023-02-11T09:50:41;18.75;;;13.93;;
10947;SDS011;5526;42.070;24.752;2023-02-11T09:53:12;14.45;;;11.13;;
10947;SDS011;5526;42.070;24.752;2023-02-11T09:55:45;9.93;;;7.30;;
10947;SDS011;5526;42.070;24.752;2023-02-11T09:58:21;8.80;;;7.40;;
10947;SDS011;5526;42.070;24.752;2023-02-11T10:00:54;10.05;;;7.20;;
10947;SDS011;5526;42.070;24.752;2023-02-11T10:03:43;9.13;;;7.85;;
10947;SDS011;5526;42.070;24.752;2023-02-11T10:09:17;10.80;;;8.27;;
10947;SDS011;5526;42.070;24.752;2023-02-11T10:12:13;10.88;;;7.47;;
10947;SDS011;5526;42.070;24.752;2023-02-11T10:14:55;10.82;;;8.18;;
10947;SDS011;5526;42.070;24.752;2023-02-11T10:17:36;11.38;;;7.93;;
10947;SDS011;5526;42.070;24.752;2023-02-11T10:20:17;13.90;;;9.18;;
10947;SDS011;5526;42.070;24.752;2023-02-11T10:22:51;12.13;;;7.45;;
10947;SDS011;5526;42.070;24.752;2023-02-11T10:25:21;10.20;;;7.43;;
10947;SDS011;5526;42.070;24.752;2023-02-11T10:27:53;14.45;;;7.65;;
10947;SDS011;5526;42.070;24.752;2023-02-11T10:30:25;9.80;;;7.57;;
10947;SDS011;5526;42.070;24.752;2023-02-11T10:32:57;9.32;;;8.02;;
10947;SDS011;5526;42.070;24.752;2023-02-11T10:35:28;10.77;;;8.40;;
10947;SDS011;5526;42.070;24.752;2023-02-11T10:37:55;10.73;;;7.88;;
10947;SDS011;5526;42.070;24.752;2023-02-11T10:40:23;11.18;;;8.60;;
10947;SDS011;5526;42.070;24.752;2023-02-11T10:42:53;9.27;;;7.13;;
10947;SDS011;5526;42.070;24.752;2023-02-11T10:45:26;10.32;;;7.57;;
10947;SDS011;5526;42.070;24.752;2023-02-11T10:47:56;10.02;;;6.75;;
10947;SDS011;5526;42.070;24.752;2023-02-11T10:50:24;10.70;;;8.18;;
10947;SDS011;5526;42.070;24.752;2023-02-11T10:52:53;11.13;;;8.57;;
10947;SDS011;5526;42.070;24.752;2023-02-11T10:55:38;11.10;;;7.93;;
10947;SDS011;5526;42.070;24.752;2023-02-11T10:58:22;10.77;;;9.00;;
10947;SDS011;5526;42.070;24.752;2023-02-11T11:00:51;10.63;;;8.50;;
10947;SDS011;5526;42.070;24.752;2023-02-11T11:03:20;14.45;;;10.25;;
10947;SDS011;5526;42.070;24.752;2023-02-11T11:05:49;9.73;;;7.75;;
10947;SDS011;5526;42.070;24.752;2023-02-11T11:08:18;27.08;;;12.77;;
10947;SDS011;5526;42.070;24.752;2023-02-11T11:10:46;9.10;;;7.25;;
10947;SDS011;5526;42.070;24.752;2023-02-11T11:13:32;17.92;;;10.90;;
10947;SDS011;5526;42.070;24.752;2023-02-11T11:16:07;17.52;;;7.75;;
10947;SDS011;5526;42.070;24.752;2023-02-11T11:18:46;13.88;;;8.20;;
10947;SDS011;5526;42.070;24.752;2023-02-11T11:21:15;9.95;;;7.45;;
10947;SDS011;5526;42.070;24.752;2023-02-11T11:23:55;11.05;;;7.57;;
10947;SDS011;5526;42.070;24.752;2023-02-11T11:26:25;9.52;;;7.65;;
10947;SDS011;5526;42.070;24.752;2023-02-11T11:28:56;15.50;;;11.55;;
10947;SDS011;5526;42.070;24.752;2023-02-11T11:31:28;9.82;;;7.25;;
10947;SDS011;5526;42.070;24.752;2023-02-11T11:33:59;11.70;;;8.85;;
10947;SDS011;5526;42.070;24.752;2023-02-11T11:36:33;13.10;;;7.15;;
10947;SDS011;5526;42.070;24.752;2023-02-11T11:39:10;13.05;;;9.02;;
10947;SDS011;5526;42.070;24.752;2023-02-11T11:41:50;14.57;;;9.70;;
10947;SDS011;5526;42.070;24.752;2023-02-11T11:44:26;14.95;;;10.88;;
10947;SDS011;5526;42.070;24.752;2023-02-11T11:47:06;12.45;;;7.95;;
10947;SDS011;5526;42.070;24.752;2023-02-11T11:49:46;10.32;;;6.78;;
10947;SDS011;5526;42.070;24.752;2023-02-11T11:52:23;8.55;;;6.93;;
10947;SDS011;5526;42.070;24.752;2023-02-11T11:55:00;24.17;;;14.63;;
10947;SDS011;5526;42.070;24.752;2023-02-11T11:57:33;10.65;;;8.00;;
10947;SDS011;5526;42.070;24.752;2023-02-11T12:00:08;8.07;;;7.03;;
10947;SDS011;5526;42.070;24.752;2023-02-11T12:03:05;8.60;;;7.07;;
10947;SDS011;5526;42.070;24.752;2023-02-11T12:05:51;7.68;;;6.50;;
10947;SDS011;5526;42.070;24.752;2023-02-11T12:08:29;8.27;;;7.15;;
10947;SDS011;5526;42.070;24.752;2023-02-11T12:11:09;8.23;;;5.68;;
10947;SDS011;5526;42.070;24.752;2023-02-11T12:13:48;8.63;;;6.07;;
10947;SDS011;5526;42.070;24.752;2023-02-11T12:16:34;6.70;;;5.85;;
10947;SDS011;5526;42.070;24.752;2023-02-11T12:22:09;12.40;;;7.93;;
10947;SDS011;5526;42.070;24.752;2023-02-11T12:24:41;11.27;;;8.80;;
10947;SDS011;5526;42.070;24.752;2023-02-11T12:27:20;7.55;;;5.85;;
10947;SDS011;5526;42.070;24.752;2023-02-11T12:30:01;6.40;;;5.65;;
10947;SDS011;5526;42.070;24.752;2023-02-11T12:32:36;7.93;;;6.35;;
10947;SDS011;5526;42.070;24.752;2023-02-11T12:35:15;10.20;;;6.97;;
10947;SDS011;5526;42.070;24.752;2023-02-11T12:37:57;8.13;;;5.93;;
10947;SDS011;5526;42.070;24.752;2023-02-11T12:40:49;7.03;;;5.95;;
10947;SDS011;5526;42.070;24.752;2023-02-11T12:43:27;6.75;;;6.05;;
10947;SDS011;5526;42.070;24.752;2023-02-11T12:46:12;6.75;;;5.88;;
10947;SDS011;5526;42.070;24.752;2023-02-11T12:49:00;6.97;;;5.93;;
10947;SDS011;5526;42.070;24.752;2023-02-11T12:51:50;5.93;;;5.32;;
10947;SDS011;5526;42.070;24.752;2023-02-11T12:54:30;6.15;;;5.05;;
10947;SDS011;5526;42.070;24.752;2023-02-11T12:57:05;6.75;;;5.90;;
10947;SDS011;5526;42.070;24.752;2023-02-11T12:59:42;7.05;;;5.35;;
10947;SDS011;5526;42.070;24.752;2023-02-11T13:02:17;7.80;;;5.57;;
10947;SDS011;5526;42.070;24.752;2023-02-11T13:04:51;7.40;;;6.53;;
10947;SDS011;5526;42.070;24.752;2023-02-11T13:07:22;6.10;;;5.45;;
10947;SDS011;5526;42.070;24.752;2023-02-11T13:09:56;6.97;;;6.28;;
10947;SDS011;5526;42.070;24.752;2023-02-11T13:12:29;7.80;;;7.00;;
10947;SDS011;5526;42.070;24.752;2023-02-11T13:15:16;6.60;;;5.85;;
10947;SDS011;5526;42.070;24.752;2023-02-11T13:17:46;7.35;;;5.50;;
10947;SDS011;5526;42.070;24.752;2023-02-11T13:20:27;8.00;;;5.45;;
10947;SDS011;5526;42.070;24.752;2023-02-11T13:23:06;6.93;;;5.90;;
10947;SDS011;5526;42.070;24.752;2023-02-11T13:25:40;8.85;;;6.45;;
10947;SDS011;5526;42.070;24.752;2023-02-11T13:28:18;8.23;;;6.60;;
10947;SDS011;5526;42.070;24.752;2023-02-11T13:30:51;6.75;;;6.03;;
10947;SDS011;5526;42.070;24.752;2023-02-11T13:33:30;6.57;;;5.88;;
10947;SDS011;5526;42.070;24.752;2023-02-11T13:36:19;8.80;;;7.07;;
10947;SDS011;5526;42.070;24.752;2023-02-11T13:38:55;7.00;;;6.22;;
10947;SDS011;5526;42.070;24.752;2023-02-11T13:41:29;7.22;;;5.75;;
10947;SDS011;5526;42.070;24.752;2023-02-11T13:43:59;7.38;;;6.47;;
10947;SDS011;5526;42.070;24.752;2023-02-11T13:46:28;6.65;;;5.85;;
10947;SDS011;5526;42.070;24.752;2023-02-11T13:49:16;8.48;;;7.22;;
10947;SDS011;5526;42.070;24.752;2023-02-11T13:51:46;8.13;;;6.93;;
10947;SDS011;5526;42.070;24.752;2023-02-11T13:54:22;8.68;;;7.13;;
10947;SDS011;5526;42.070;24.752;2023-02-11T14:00:41;8.23;;;6.78;;
10947;SDS011;5526;42.070;24.752;2023-02-11T14:03:27;7.75;;;6.97;;
10947;SDS011;5526;42.070;24.752;2023-02-11T14:06:16;7.40;;;6.70;;
10947;SDS011;5526;42.070;24.752;2023-02-11T14:09:09;7.80;;;6.95;;
10947;SDS011;5526;42.070;24.752;2023-02-11T14:17:45;12.20;;;7.55;;
10947;SDS011;5526;42.070;24.752;2023-02-11T14:20:34;9.90;;;7.22;;
10947;SDS011;5526;42.070;24.752;2023-02-11T14:23:04;12.05;;;9.30;;
10947;SDS011;5526;42.070;24.752;2023-02-11T14:25:33;9.50;;;7.82;;
10947;SDS011;5526;42.070;24.752;2023-02-11T14:28:06;12.00;;;7.85;;
10947;SDS011;5526;42.070;24.752;2023-02-11T14:30:45;8.13;;;7.30;;
10947;SDS011;5526;42.070;24.752;2023-02-11T14:39:18;7.45;;;6.53;;
10947;SDS011;5526;42.070;24.752;2023-02-11T14:41:56;9.45;;;7.30;;
10947;SDS011;5526;42.070;24.752;2023-02-11T14:44:25;8.95;;;7.03;;
10947;SDS011;5526;42.070;24.752;2023-02-11T14:46:55;8.07;;;7.10;;
10947;SDS011;5526;42.070;24.752;2023-02-11T14:49:23;9.05;;;7.38;;
10947;SDS011;5526;42.070;24.752;2023-02-11T14:51:53;11.32;;;8.13;;
10947;SDS011;5526;42.070;24.752;2023-02-11T14:54:22;8.93;;;7.72;;
10947;SDS011;5526;42.070;24.752;2023-02-11T14:57:07;8.23;;;7.03;;
10947;SDS011;5526;42.070;24.752;2023-02-11T14:59:38;9.32;;;7.40;;
10947;SDS011;5526;42.070;24.752;2023-02-11T15:02:19;8.82;;;7.53;;
10947;SDS011;5526;42.070;24.752;2023-02-11T15:04:48;10.85;;;8.20;;
10947;SDS011;5526;42.070;24.752;2023-02-11T15:07:15;16.10;;;10.57;;
10947;SDS011;5526;42.070;24.752;2023-02-11T15:09:44;14.70;;;12.07;;
10947;SDS011;5526;42.070;24.752;2023-02-11T15:12:16;17.05;;;12.82;;
10947;SDS011;5526;42.070;24.752;2023-02-11T15:14:48;15.05;;;11.93;;
10947;SDS011;5526;42.070;24.752;2023-02-11T15:17:20;12.45;;;10.32;;
10947;SDS011;5526;42.070;24.752;2023-02-11T15:19:50;10.60;;;9.50;;
10947;SDS011;5526;42.070;24.752;2023-02-11T15:22:19;16.00;;;10.23;;
10947;SDS011;5526;42.070;24.752;2023-02-11T15:24:56;17.40;;;10.40;;
10947;SDS011;5526;42.070;24.752;2023-02-11T15:27:26;13.52;;;10.02;;
10947;SDS011;5526;42.070;24.752;2023-02-11T15:29:53;13.77;;;8.73;;